createdAt,value
2023-02-19T00:02:02.141Z,61529.25
2023-02-19T00:04:30.877Z,61527.75
2023-02-19T00:06:59.323Z,61527.09
2023-02-19T00:09:27.909Z,61520.78
2023-02-19T00:11:56.411Z,61526.69
2023-02-19T00:14:24.923Z,61526.56
2023-02-19T00:16:53.371Z,61524.41
2023-02-19T00:19:23.476Z,61524.00
2023-02-19T00:21:53.900Z,61524.41
2023-02-19T00:24:23.199Z,61523.34
2023-02-19T00:26:51.929Z,61528.84
2023-02-19T00:29:22.699Z,61531.94
2023-02-19T00:31:52.125Z,61521.63
2023-02-19T00:34:22.054Z,61519.06
2023-02-19T00:36:50.566Z,61524.97
2023-02-19T00:39:21.521Z,61527.75
2023-02-19T00:41:50.211Z,61527.00
2023-02-19T00:44:19.019Z,61526.47
2023-02-19T00:46:49.905Z,61533.00
2023-02-19T00:49:23.529Z,61521.75
2023-02-19T00:51:53.895Z,61520.66
2023-02-19T00:54:23.639Z,61524.13
2023-02-19T00:56:52.738Z,61522.81
2023-02-19T00:59:21.239Z,61527.53
2023-02-19T01:01:50.665Z,61521.19
2023-02-19T01:04:19.627Z,61527.75
2023-02-19T01:06:49.832Z,61530.97
2023-02-19T01:09:18.413Z,61523.88
2023-02-19T01:11:47.263Z,61523.88
2023-02-19T01:14:15.890Z,61522.81
2023-02-19T01:16:44.548Z,61526.16
2023-02-19T01:19:13.731Z,61524.84
2023-02-19T01:21:42.814Z,61529.91
2023-02-19T01:24:13.800Z,61522.81
2023-02-19T01:26:42.382Z,61532.25
2023-02-19T01:29:11.214Z,61526.69
2023-02-19T01:31:42.231Z,61531.84
2023-02-19T01:34:13.324Z,61522.81
2023-02-19T01:36:42.340Z,61516.06
2023-02-19T01:39:13.305Z,61532.38
2023-02-19T01:41:43.297Z,61527.66
2023-02-19T01:45:15.076Z,61522.41
2023-02-19T01:47:43.555Z,61523.06
2023-02-19T01:50:12.236Z,61533.34
2023-02-19T01:52:40.709Z,61522.41
2023-02-19T01:55:13.925Z,61512.19
2023-02-19T01:57:48.163Z,61517.69
2023-02-19T02:00:19.885Z,61507.34
2023-02-19T02:02:53.557Z,61522.81
2023-02-19T02:05:36.597Z,61526.69
2023-02-19T02:08:23.655Z,61520.13
2023-02-19T02:10:54.315Z,61510.59
2023-02-19T02:13:23.121Z,61526.34
2023-02-19T02:16:05.567Z,61519.06
2023-02-19T02:18:47.679Z,61501.44
2023-02-19T02:21:37.972Z,61515.41
2023-02-19T02:24:29.171Z,61515.84
2023-02-19T02:27:20.093Z,61511.44
2023-02-19T02:30:18.747Z,61504.25
2023-02-19T02:32:56.318Z,61500.91
2023-02-19T02:35:28.823Z,61507.34
2023-02-19T02:38:02.375Z,61507.91
2023-02-19T02:40:32.593Z,61514.47
2023-02-19T02:43:03.141Z,61518.53
2023-02-19T02:45:38.479Z,61516.91
2023-02-19T02:48:34.465Z,61508.44
2023-02-19T02:51:14.886Z,61507.91
2023-02-19T02:54:12.147Z,61503.72
2023-02-19T02:56:42.397Z,61516.81
2023-02-19T02:59:15.099Z,61506.94
2023-02-19T03:02:07.767Z,61507.78
2023-02-19T03:05:01.614Z,61508.84
2023-02-19T03:07:38.870Z,61504.44
2023-02-19T03:10:13.295Z,61506.28
2023-02-19T03:13:00.879Z,61515.31
2023-02-19T03:15:54.521Z,61512.50
2023-02-19T03:18:51.149Z,61508.84
2023-02-19T03:21:23.630Z,61506.16
2023-02-19T03:24:10.113Z,61508.44
2023-02-19T03:26:40.726Z,61515.72
2023-02-19T03:29:27.132Z,61511.44
2023-02-19T03:32:12.953Z,61510.91
2023-02-19T03:34:48.659Z,61502.53
2023-02-19T03:37:25.215Z,61494.47
2023-02-19T03:39:56.314Z,61505.09
2023-02-19T03:42:38.263Z,61498.09
2023-02-19T03:45:31.697Z,61499.59
2023-02-19T03:48:19.387Z,61507.34
2023-02-19T03:50:56.193Z,61497.25
2023-02-19T03:53:35.926Z,61495.13
2023-02-19T03:56:11.204Z,61503.06
2023-02-19T03:58:52.715Z,61507.34
2023-02-19T04:01:28.641Z,61513.59
2023-02-19T04:04:02.757Z,61505.09
2023-02-19T04:06:36.326Z,61504.78
2023-02-19T04:09:08.814Z,61502.41
2023-02-19T04:11:38.825Z,61502.41
2023-02-19T04:14:14.367Z,61504.56
2023-02-19T04:16:47.056Z,61499.97
2023-02-19T04:19:20.219Z,61507.25
2023-02-19T04:21:52.257Z,61499.84
2023-02-19T04:24:26.539Z,61503.50
2023-02-19T04:26:56.400Z,61506.16
2023-02-19T04:29:24.802Z,61507.78
2023-02-19T04:31:53.402Z,61502.94
2023-02-19T04:34:21.840Z,61503.19
2023-02-19T04:36:51.626Z,61509.28
2023-02-19T04:39:20.139Z,61502.66
2023-02-19T04:41:48.602Z,61502.00
2023-02-19T04:44:17.060Z,61504.56
2023-02-19T04:46:45.468Z,61506.28
2023-02-19T04:49:13.981Z,61496.72
2023-02-19T04:51:42.543Z,61511.66
2023-02-19T04:54:12.568Z,61513.81
2023-02-19T04:56:41.555Z,61510.59
2023-02-19T04:59:10.024Z,61512.72
2023-02-19T05:01:38.453Z,61521.75
2023-02-19T05:04:07.126Z,61508.56
2023-02-19T05:06:35.538Z,61518.22
2023-02-19T05:09:04.217Z,61517.44
2023-02-19T05:11:33.964Z,61523.47
2023-02-19T05:14:02.374Z,61525.50
2023-02-19T05:16:30.870Z,61517.69
2023-02-19T05:18:59.209Z,61527.53
2023-02-19T05:21:27.650Z,61524.41
2023-02-19T05:23:56.127Z,61525.41
2023-02-19T05:26:25.438Z,61522.94
2023-02-19T05:28:55.558Z,61525.06
2023-02-19T05:31:24.766Z,61521.75
2023-02-19T05:33:53.294Z,61514.88
2023-02-19T05:36:23.450Z,61517.88
2023-02-19T05:38:55.258Z,61518.94
2023-02-19T05:41:26.024Z,61511.97
2023-02-19T05:43:56.658Z,61509.38
2023-02-19T05:46:27.673Z,61509.38
2023-02-19T05:48:56.327Z,61506.72
2023-02-19T05:51:27.107Z,61513.06
2023-02-19T05:53:57.248Z,61508.56
2023-02-19T05:56:34.116Z,61510.59
2023-02-19T05:59:07.970Z,61512.06
2023-02-19T06:01:37.001Z,61507.91
2023-02-19T06:04:05.900Z,61520.03
2023-02-19T06:06:34.666Z,61517.44
2023-02-19T06:09:03.123Z,61513.38
2023-02-19T06:11:32.388Z,61517.56
2023-02-19T06:14:01.153Z,61511.00
2023-02-19T06:16:32.286Z,61511.66
2023-02-19T06:19:00.904Z,61508.97
2023-02-19T06:21:29.381Z,61512.72
2023-02-19T06:23:57.893Z,61513.81
2023-02-19T06:26:27.174Z,61517.88
2023-02-19T06:28:55.714Z,61519.38
2023-02-19T06:31:24.836Z,61503.72
2023-02-19T06:33:55.105Z,61512.06
2023-02-19T06:36:24.596Z,61518.94
2023-02-19T06:38:53.375Z,61508.03
2023-02-19T06:41:21.757Z,61518.53
2023-02-19T06:43:50.209Z,61518.94
2023-02-19T06:46:18.769Z,61515.94
2023-02-19T06:48:47.487Z,61513.16
2023-02-19T06:51:22.746Z,61511.25
2023-02-19T06:53:51.329Z,61508.84
2023-02-19T06:56:29.118Z,61523.78
2023-02-19T06:58:59.829Z,61524.97
2023-02-19T07:01:29.354Z,61523.47
2023-02-19T07:03:58.143Z,61522.41
2023-02-19T07:06:29.409Z,61523.88
2023-02-19T07:08:59.392Z,61516.38
2023-02-19T07:11:30.901Z,61523.88
2023-02-19T07:14:01.329Z,61528.19
2023-02-19T07:16:30.565Z,61524.53
2023-02-19T07:19:00.206Z,61528.19
2023-02-19T07:21:30.834Z,61528.19
2023-02-19T07:23:59.837Z,61518.94
2023-02-19T07:26:28.293Z,61507.34
2023-02-19T07:28:56.713Z,61520.66
2023-02-19T07:31:26.199Z,61515.41
2023-02-19T07:33:55.203Z,61518.75
2023-02-19T07:36:26.018Z,61520.66
2023-02-19T07:39:00.966Z,61521.09
2023-02-19T07:41:29.774Z,61515.94
2023-02-19T07:44:00.200Z,61510.59
2023-02-19T07:46:30.060Z,61522.28
2023-02-19T07:48:58.454Z,61515.94
2023-02-19T07:51:27.034Z,61521.31
2023-02-19T07:53:55.511Z,61525.50
2023-02-19T07:56:25.378Z,61529.25
2023-02-19T07:58:53.815Z,61541.50
2023-02-19T08:01:45.205Z,61551.16
2023-02-19T08:04:15.186Z,61553.84
2023-02-19T08:06:44.102Z,61542.38
2023-02-19T08:09:13.300Z,61540.53
2023-02-19T08:12:00.783Z,61550.75
2023-02-19T08:14:29.835Z,61557.63
2023-02-19T08:16:58.471Z,61543.44
2023-02-19T08:19:27.253Z,61557.19
2023-02-19T08:21:55.805Z,61552.03
2023-02-19T08:24:24.249Z,61557.41
2023-02-19T08:26:54.011Z,61547.09
2023-02-19T08:29:22.449Z,61547.53
2023-02-19T08:31:50.977Z,61546.75
2023-02-19T08:34:19.422Z,61546.88
2023-02-19T08:36:47.942Z,61540.97
2023-02-19T08:39:16.478Z,61527.66
2023-02-19T08:41:44.929Z,61514.47
2023-02-19T08:44:14.728Z,61520.25
2023-02-19T08:46:43.113Z,61536.66
2023-02-19T08:49:11.601Z,61532.72
2023-02-19T08:51:40.009Z,61550.19
2023-02-19T08:54:08.490Z,61541.19
2023-02-19T08:56:36.956Z,61547.75
2023-02-19T08:59:05.862Z,61551.91
2023-02-19T09:01:35.834Z,61553.53
2023-02-19T09:04:04.325Z,61568.56
2023-02-19T09:06:32.946Z,61583.09
2023-02-19T09:09:01.432Z,61582.09
2023-02-19T09:11:29.855Z,61587.25
2023-02-19T09:13:58.791Z,61595.84
2023-02-19T09:16:27.262Z,61599.06
2023-02-19T09:18:57.062Z,61596.94
2023-02-19T09:21:25.558Z,61607.91
2023-02-19T09:23:54.165Z,61615.75
2023-02-19T09:26:22.677Z,61610.47
2023-02-19T09:28:51.117Z,61615.84
2023-02-19T09:31:19.671Z,61605.66
2023-02-19T09:33:49.666Z,61600.59
2023-02-19T09:36:19.755Z,61609.41
2023-02-19T09:38:48.274Z,61593.84
2023-02-19T09:41:25.108Z,61602.31
2023-02-19T09:43:53.757Z,61618.44
2023-02-19T09:46:32.050Z,61618.44
2023-02-19T09:49:07.270Z,61595.56
2023-02-19T09:51:39.715Z,61604.03
2023-02-19T09:54:14.891Z,61592.75
2023-02-19T09:56:43.395Z,61597.47
2023-02-19T09:59:22.462Z,61594.38
2023-02-19T10:01:58.948Z,61589.00
2023-02-19T10:04:28.247Z,61582.97
2023-02-19T10:07:03.460Z,61606.38
2023-02-19T10:09:32.666Z,61582.97
2023-02-19T10:12:01.188Z,61583.91
2023-02-19T10:14:37.977Z,61567.50
2023-02-19T10:17:07.929Z,61579.22
2023-02-19T10:19:37.481Z,61582.56
2023-02-19T10:22:11.673Z,61572.88
2023-02-19T10:24:43.180Z,61574.78
2023-02-19T10:27:14.573Z,61567.06
2023-02-19T10:29:45.400Z,61585.53
2023-02-19T10:32:18.777Z,61555.47
2023-02-19T10:34:47.191Z,61553.44
2023-02-19T10:37:19.387Z,61545.38
2023-02-19T10:39:50.992Z,61562.56
2023-02-19T10:42:23.054Z,61546.44
2023-02-19T10:44:58.565Z,61538.91
2023-02-19T10:47:29.922Z,61563.53
2023-02-19T10:50:03.303Z,61564.16
2023-02-19T10:52:36.998Z,61565.47
2023-02-19T10:55:33.235Z,61564.06
2023-02-19T10:58:26.419Z,61553.31
2023-02-19T11:01:28.008Z,61565.78
2023-02-19T11:04:17.266Z,61560.94
2023-02-19T11:06:47.163Z,61556.75
2023-02-19T11:09:28.232Z,61584.25
2023-02-19T11:11:58.595Z,61593.47
2023-02-19T11:14:28.895Z,61591.69
2023-02-19T11:16:59.563Z,61602.19
2023-02-19T11:19:37.606Z,61621.75
2023-02-19T11:22:22.103Z,61603.81
2023-02-19T11:24:57.322Z,61602.72
2023-02-19T11:27:27.360Z,61605.53
2023-02-19T11:29:56.087Z,61619.06
2023-02-19T11:32:32.480Z,61637.22
2023-02-19T11:35:19.584Z,61647.75
2023-02-19T11:37:57.765Z,61667.47
2023-02-19T11:40:40.606Z,61655.63
2023-02-19T11:43:26.185Z,61659.69
2023-02-19T11:46:03.248Z,61657.13
2023-02-19T11:48:53.855Z,61658.19
2023-02-19T11:52:03.227Z,61658.19
2023-02-19T11:54:51.124Z,61661.41
2023-02-19T11:57:36.725Z,61678.66
2023-02-19T12:00:23.138Z,61678.22
2023-02-19T12:03:23.590Z,61721.69
2023-02-19T12:06:14.678Z,61704.69
2023-02-19T12:09:20.172Z,61723.16
2023-02-19T12:12:21.023Z,61715.22
2023-02-19T12:15:25.639Z,61721.56
2023-02-19T12:18:35.653Z,61747.06
2023-02-19T12:21:19.588Z,61755.97
2023-02-19T12:24:39.468Z,61766.63
2023-02-19T12:27:22.214Z,61754.38
2023-02-19T12:30:14.932Z,61758.66
2023-02-19T12:33:05.731Z,61716.72
2023-02-19T12:35:56.884Z,61711.97
2023-02-19T12:38:35.179Z,61734.03
2023-02-19T12:41:22.219Z,61737.28
2023-02-19T12:43:57.234Z,61737.16
2023-02-19T12:46:33.235Z,61710.06
2023-02-19T12:49:11.040Z,61723.16
2023-02-19T12:51:45.834Z,61698.00
2023-02-19T12:54:21.124Z,61712.63
2023-02-19T12:56:54.997Z,61711.97
2023-02-19T12:59:31.276Z,61705.31
2023-02-19T13:02:11.139Z,61701.88
2023-02-19T13:04:49.104Z,61705.00
2023-02-19T13:07:23.842Z,61698.53
2023-02-19T13:09:57.187Z,61717.69
2023-02-19T13:12:30.903Z,61713.50
2023-02-19T13:15:02.502Z,61706.63
2023-02-19T13:17:42.404Z,61710.38
2023-02-19T13:20:21.699Z,61707.25
2023-02-19T13:23:19.903Z,61695.22
2023-02-19T13:26:09.308Z,61710.25
2023-02-19T13:29:01.160Z,61712.84
2023-02-19T13:31:53.714Z,61714.25
2023-02-19T13:34:37.160Z,61734.56
2023-02-19T13:37:06.433Z,61750.59
2023-02-19T13:39:35.913Z,61750.06
2023-02-19T13:42:04.891Z,61746.53
2023-02-19T13:44:35.648Z,61743.06
2023-02-19T13:47:06.401Z,61735.66
2023-02-19T13:49:50.160Z,61705.53
2023-02-19T13:52:40.653Z,61723.16
2023-02-19T13:56:00.430Z,61736.09
2023-02-19T13:59:21.165Z,61723.59
2023-02-19T14:02:28.085Z,61702.31
2023-02-19T14:05:01.251Z,61710.50
2023-02-19T14:07:56.364Z,61716.28
2023-02-19T14:11:02.485Z,61725.75
2023-02-19T14:14:26.644Z,61708.75
2023-02-19T14:17:05.802Z,61700.69
2023-02-19T14:19:58.411Z,61708.75
2023-02-19T14:23:17.248Z,61696.91
2023-02-19T14:25:52.122Z,61699.72
2023-02-19T14:28:35.636Z,61691.56
2023-02-19T14:31:30.217Z,61700.16
2023-02-19T14:34:03.384Z,61679.72
2023-02-19T14:36:44.146Z,61680.56
2023-02-19T14:39:18.321Z,61666.38
2023-02-19T14:41:51.012Z,61668.31
2023-02-19T14:44:25.073Z,61673.25
2023-02-19T14:46:58.973Z,61657.13
2023-02-19T14:49:32.990Z,61671.34
2023-02-19T14:52:07.925Z,61651.75
2023-02-19T14:54:43.949Z,61645.28
2023-02-19T14:57:19.032Z,61645.72
2023-02-19T14:59:56.159Z,61642.06
2023-02-19T15:02:26.012Z,61656.06
2023-02-19T15:04:55.153Z,61663.69
2023-02-19T15:07:29.996Z,61664.63
2023-02-19T15:10:04.926Z,61664.63
2023-02-19T15:12:39.744Z,61665.72
2023-02-19T15:15:09.503Z,61652.41
2023-02-19T15:17:41.908Z,61664.97
2023-02-19T15:20:16.471Z,61654.84
2023-02-19T15:22:47.382Z,61639.63
2023-02-19T15:25:19.488Z,61650.25
2023-02-19T15:27:48.390Z,61649.69
2023-02-19T15:30:23.986Z,61644.22
2023-02-19T15:32:58.655Z,61642.59
2023-02-19T15:35:28.980Z,61628.63
2023-02-19T15:37:58.950Z,61615.31
2023-02-19T15:40:32.480Z,61635.63
2023-02-19T15:43:01.937Z,61631.75
2023-02-19T15:45:37.707Z,61634.34
2023-02-19T15:48:14.508Z,61627.97
2023-02-19T15:50:48.532Z,61630.78
2023-02-19T15:53:21.941Z,61616.28
2023-02-19T15:56:00.651Z,61623.81
2023-02-19T15:58:34.157Z,61631.75
2023-02-19T16:01:04.852Z,61621.53
2023-02-19T16:03:34.459Z,61630.78
2023-02-19T16:06:11.675Z,61624.88
2023-02-19T16:08:43.341Z,61609.28
2023-02-19T16:11:28.921Z,61613.06
2023-02-19T16:14:23.405Z,61606.59
2023-02-19T16:16:56.286Z,61618.31
2023-02-19T16:19:28.595Z,61611.34
2023-02-19T16:21:57.897Z,61613.47
2023-02-19T16:24:35.148Z,61613.59
2023-02-19T16:27:07.818Z,61609.19
2023-02-19T16:29:36.377Z,61604.03
2023-02-19T16:32:08.953Z,61611.53
2023-02-19T16:34:43.178Z,61598.44
2023-02-19T16:37:35.227Z,61603.50
2023-02-19T16:41:10.231Z,61603.38
2023-02-19T16:43:44.369Z,61605.53
2023-02-19T16:46:14.652Z,61595.97
2023-02-19T16:48:43.169Z,61582.00
2023-02-19T16:51:26.729Z,61580.16
2023-02-19T16:53:55.497Z,61577.59
2023-02-19T16:56:25.442Z,61573.84
2023-02-19T16:58:53.880Z,61590.25
2023-02-19T17:01:26.190Z,61582.97
2023-02-19T17:04:02.275Z,61573.72
2023-02-19T17:06:32.787Z,61578.88
2023-02-19T17:09:01.434Z,61589.28
2023-02-19T17:11:33.612Z,61567.50
2023-02-19T17:14:02.237Z,61575.75
2023-02-19T17:16:39.865Z,61555.03
2023-02-19T17:19:13.517Z,61559.34
2023-02-19T17:21:42.252Z,61567.28
2023-02-19T17:24:10.834Z,61565.34
2023-02-19T17:26:40.910Z,61571.38
2023-02-19T17:29:14.936Z,61570.09
2023-02-19T17:31:43.499Z,61575.03
2023-02-19T17:34:11.971Z,61583.63
2023-02-19T17:36:40.979Z,61585.53
2023-02-19T17:39:15.113Z,61571.38
2023-02-19T17:41:45.020Z,61569.44
2023-02-19T17:44:13.448Z,61561.50
2023-02-19T17:46:42.080Z,61563.75
2023-02-19T17:49:12.204Z,61564.72
2023-02-19T17:51:40.714Z,61556.13
2023-02-19T17:54:09.520Z,61558.25
2023-02-19T17:56:40.022Z,61552.34
2023-02-19T17:59:10.353Z,61551.81
2023-02-19T18:01:38.831Z,61541.06
2023-02-19T18:04:07.496Z,61554.50
2023-02-19T18:06:36.031Z,61555.56
2023-02-19T18:09:04.641Z,61546.69
2023-02-19T18:11:33.005Z,61552.25
2023-02-19T18:14:01.493Z,61546.44
2023-02-19T18:16:31.327Z,61547.63
2023-02-19T18:19:02.191Z,61532.59
2023-02-19T18:21:30.615Z,61551.16
2023-02-19T18:23:59.213Z,61539.47
2023-02-19T18:26:27.708Z,61534.88
2023-02-19T18:28:56.238Z,61544.94
2023-02-19T18:31:24.870Z,61531.63
2023-02-19T18:33:54.796Z,61550.63
2023-02-19T18:36:23.283Z,61549.66
2023-02-19T18:38:51.795Z,61535.47
2023-02-19T18:41:21.180Z,61530.56
2023-02-19T18:43:50.198Z,61518.75
2023-02-19T18:46:22.266Z,61521.75
2023-02-19T18:48:50.770Z,61520.25
2023-02-19T18:51:23.518Z,61536.13
2023-02-19T18:53:52.174Z,61525.50
2023-02-19T18:56:20.651Z,61523.25
2023-02-19T18:58:50.424Z,61519.16
2023-02-19T19:01:19.154Z,61512.72
2023-02-19T19:03:47.613Z,61520.56
2023-02-19T19:06:16.059Z,61508.44
2023-02-19T19:08:45.993Z,61515.31
2023-02-19T19:11:14.756Z,61510.47
2023-02-19T19:13:43.305Z,61519.06
2023-02-19T19:16:11.992Z,61522.16
2023-02-19T19:18:40.778Z,61517.03
2023-02-19T19:21:09.875Z,61518.94
2023-02-19T19:23:38.466Z,61511.97
2023-02-19T19:26:11.071Z,61519.50
2023-02-19T19:28:44.351Z,61507.34
2023-02-19T19:31:13.932Z,61508.44
2023-02-19T19:33:43.631Z,61509.38
2023-02-19T19:36:12.666Z,61504.56
2023-02-19T19:38:41.908Z,61498.66
2023-02-19T19:41:15.162Z,61502.41
2023-02-19T19:43:43.839Z,61492.75
2023-02-19T19:46:16.594Z,61499.31
2023-02-19T19:48:45.251Z,61502.13
2023-02-19T19:51:14.431Z,61489.75
2023-02-19T19:53:43.058Z,61500.66
2023-02-19T19:56:13.099Z,61491.91
2023-02-19T19:58:41.597Z,61497.03
2023-02-19T20:01:10.763Z,61493.94
2023-02-19T20:03:39.836Z,61494.22
2023-02-19T20:06:09.141Z,61492.09
2023-02-19T20:08:37.666Z,61493.81
2023-02-19T20:11:06.541Z,61496.19
2023-02-19T20:13:36.478Z,61493.41
2023-02-19T20:16:06.175Z,61491.25
2023-02-19T20:18:36.228Z,61490.19
2023-02-19T20:21:04.887Z,61489.63
2023-02-19T20:23:33.699Z,61489.53
2023-02-19T20:26:02.191Z,61485.88
2023-02-19T20:28:30.620Z,61493.81
2023-02-19T20:31:00.645Z,61483.84
2023-02-19T20:33:29.240Z,61485.22
2023-02-19T20:35:57.878Z,61472.59
2023-02-19T20:38:26.842Z,61477.72
2023-02-19T20:40:56.474Z,61477.84
2023-02-19T20:43:24.879Z,61476.50
2023-02-19T20:45:53.352Z,61479.31
2023-02-19T20:48:23.161Z,61486.97
2023-02-19T20:50:51.602Z,61473.00
2023-02-19T20:53:20.013Z,61483.06
2023-02-19T20:55:48.490Z,61467.09
2023-02-19T20:58:17.251Z,61479.31
2023-02-19T21:00:46.430Z,61470.59
2023-02-19T21:03:14.967Z,61483.06
2023-02-19T21:05:44.796Z,61481.47
2023-02-19T21:08:14.092Z,61474.06
2023-02-19T21:10:42.464Z,61476.63
2023-02-19T21:13:10.890Z,61484.81
2023-02-19T21:15:39.385Z,61477.72
2023-02-19T21:18:07.906Z,61466.97
2023-02-19T21:20:36.315Z,61473.72
2023-02-19T21:23:06.231Z,61452.50
2023-02-19T21:25:34.732Z,61449.81
2023-02-19T21:28:03.195Z,61458.69
2023-02-19T21:30:31.729Z,61456.78
2023-02-19T21:33:00.148Z,61448.75
2023-02-19T21:35:29.281Z,61452.59
2023-02-19T21:37:57.714Z,61453.25
2023-02-19T21:40:29.061Z,61458.50
2023-02-19T21:42:57.564Z,61453.25
2023-02-19T21:45:26.183Z,61451.09
2023-02-19T21:47:55.143Z,61449.28
2023-02-19T21:50:23.982Z,61447.88
2023-02-19T21:52:52.490Z,61453.56
2023-02-19T21:55:21.140Z,61446.72
2023-02-19T21:57:50.988Z,61442.72
2023-02-19T22:00:20.448Z,61439.63
2023-02-19T22:02:48.911Z,61434.38
2023-02-19T22:05:17.903Z,61439.75
2023-02-19T22:07:46.312Z,61439.31
2023-02-19T22:10:16.678Z,61446.06
2023-02-19T22:12:45.099Z,61442.31
2023-02-19T22:15:15.260Z,61446.16
2023-02-19T22:17:43.797Z,61444.44
2023-02-19T22:20:12.752Z,61445.00
2023-02-19T22:22:42.284Z,61443.38
2023-02-19T22:25:10.767Z,61443.38
2023-02-19T22:27:39.288Z,61437.59
2023-02-19T22:30:09.335Z,61441.75
2023-02-19T22:32:39.442Z,61451.53
2023-02-19T22:35:08.654Z,61442.53
2023-02-19T22:37:37.026Z,61447.00
2023-02-19T22:40:06.160Z,61440.16
2023-02-19T22:42:36.018Z,61463.22
2023-02-19T22:45:05.040Z,61445.63
2023-02-19T22:47:33.565Z,61425.13
2023-02-19T22:50:03.579Z,61435.44
2023-02-19T22:52:32.077Z,61439.09
2023-02-19T22:55:00.905Z,61433.31
2023-02-19T22:57:29.323Z,61436.94
2023-02-19T22:59:57.720Z,61445.09
2023-02-19T23:02:26.099Z,61448.50
2023-02-19T23:04:54.509Z,61428.06
2023-02-19T23:07:24.326Z,61438.44
2023-02-19T23:09:52.889Z,61416.13
2023-02-19T23:12:21.289Z,61414.63
2023-02-19T23:14:49.732Z,61415.59
2023-02-19T23:17:18.075Z,61415.47
2023-02-19T23:19:46.473Z,61416.53
2023-02-19T23:22:15.248Z,61402.72
2023-02-19T23:24:45.110Z,61410.75
2023-02-19T23:27:16.342Z,61410.00
2023-02-19T23:29:44.874Z,61407.31
2023-02-19T23:32:13.675Z,61414.41
2023-02-19T23:34:42.260Z,61411.31
2023-02-19T23:37:10.710Z,61410.13
2023-02-19T23:39:39.212Z,61422.22
2023-02-19T23:42:09.000Z,61393.19
2023-02-19T23:44:37.379Z,61394.78
2023-02-19T23:47:05.868Z,61411.84
2023-02-19T23:49:34.398Z,61408.63
2023-02-19T23:52:02.771Z,61411.59
2023-02-19T23:54:31.346Z,61404.75
2023-02-19T23:56:59.730Z,61405.16
2023-02-19T23:59:29.487Z,61388.13
